Time;durP1;ratioP1;P1;durP2;ratioP2;P2;SDS_P1;SDS_P2;PMS_P1;PMS_P2;Temp;Humidity;BMP_temperature;BMP_pressure;BME280_temperature;BME280_humidity;BME280_pressure;Samples;Min_cycle;Max_cycle;Signal;HPM_P1;HPM_P2
2022/01/10 00:00:51;;;;;;;54.78;7.75;;;;;;;-145.67;100.00;66521.78;4997039;28;20056;-71
2022/01/10 00:03:17;;;;;;;63.30;8.15;;;;;;;-145.67;100.00;66521.78;5011012;28;20030;-70
2022/01/10 00:05:43;;;;;;;52.90;6.78;;;;;;;-145.67;100.00;66521.78;4996336;28;20042;-70
2022/01/10 00:08:08;;;;;;;62.38;8.68;;;;;;;-145.67;100.00;66521.78;4995140;28;20077;-71
2022/01/10 00:10:35;;;;;;;56.00;7.70;;;;;;;-145.67;100.00;66521.78;4996842;28;20120;-71
2022/01/10 00:13:00;;;;;;;53.78;7.80;;;;;;;-145.67;100.00;66521.78;5002428;28;20045;-71
2022/01/10 00:15:26;;;;;;;50.63;6.70;;;;;;;-145.67;100.00;66521.78;4996525;28;20137;-71
2022/01/10 00:17:54;;;;;;;48.47;6.53;;;;;;;-145.67;100.00;66521.78;4996136;28;20892;-71
2022/01/10 00:20:20;;;;;;;62.10;9.15;;;;;;;-145.67;100.00;66521.78;4996185;28;20505;-70
2022/01/10 00:22:50;;;;;;;39.72;7.28;;;;;;;-145.67;100.00;66521.78;4996447;28;20270;-71
2022/01/10 00:25:18;;;;;;;44.80;6.75;;;;;;;-145.67;100.00;66521.78;4996707;28;20036;-71
2022/01/10 00:27:44;;;;;;;60.72;8.43;;;;;;;-145.67;100.00;66521.78;4996323;28;20029;-71
2022/01/10 00:30:10;;;;;;;53.85;7.03;;;;;;;-145.67;100.00;66521.78;4994921;28;20026;-71
2022/01/10 00:32:37;;;;;;;49.92;7.18;;;;;;;-145.67;100.00;66521.78;5001518;28;20037;-70
2022/01/10 00:35:04;;;;;;;41.13;7.35;;;;;;;-145.67;100.00;66521.78;4985491;28;20694;-71
2022/01/10 00:37:33;;;;;;;45.08;6.53;;;;;;;-145.67;100.00;66521.78;5002438;28;20053;-71
2022/01/10 00:39:59;;;;;;;52.70;8.75;;;;;;;-145.67;100.00;66521.78;4995102;28;20052;-71
2022/01/10 00:42:24;;;;;;;35.75;8.77;;;;;;;-145.67;100.00;66521.78;4994794;28;20025;-71
2022/01/10 00:44:54;;;;;;;36.08;7.85;;;;;;;-145.67;100.00;66521.78;4995697;28;20137;-70
2022/01/10 00:47:22;;;;;;;42.30;8.48;;;;;;;-145.67;100.00;66521.78;5001214;28;20029;-70
2022/01/10 00:49:53;;;;;;;40.55;10.15;;;;;;;-145.67;100.00;66521.78;4995558;28;20056;-71
2022/01/10 00:52:18;;;;;;;34.20;9.00;;;;;;;-145.67;100.00;66521.78;4999374;28;20038;-71
2022/01/10 00:54:44;;;;;;;34.30;9.65;;;;;;;-145.67;100.00;66521.78;4995283;28;20077;-71
2022/01/10 00:57:12;;;;;;;41.05;10.98;;;;;;;-145.67;100.00;66521.78;4996566;28;20044;-71
2022/01/10 00:59:39;;;;;;;44.55;14.95;;;;;;;-145.67;100.00;66521.78;4994614;28;20082;-71
2022/01/10 01:02:05;;;;;;;59.03;16.85;;;;;;;-145.67;100.00;66521.78;4994998;28;20030;-72
2022/01/10 01:04:33;;;;;;;46.40;15.63;;;;;;;-145.67;100.00;66521.78;5000622;28;20304;-71
2022/01/10 01:06:58;;;;;;;36.13;13.57;;;;;;;-145.67;100.00;66521.78;4995983;28;20141;-71
2022/01/10 01:09:28;;;;;;;45.97;15.93;;;;;;;-145.67;100.00;66521.78;5009974;28;20034;-71
2022/01/10 01:15:06;;;;;;;58.03;20.10;;;;;;;-145.67;100.00;66521.78;5003919;28;20042;-71
2022/01/10 01:17:35;;;;;;;55.33;21.25;;;;;;;-145.67;100.00;66521.78;5008642;28;20025;-70
2022/01/10 01:20:27;;;;;;;54.42;22.35;;;;;;;-145.67;100.00;66521.78;4994994;28;20201;-70
2022/01/10 01:25:55;;;;;;;55.17;23.23;;;;;;;-145.67;100.00;66521.78;4972727;28;20088;-69
2022/01/10 01:28:20;;;;;;;58.53;21.77;;;;;;;-145.67;100.00;66521.78;4972166;28;20136;-73
2022/01/10 01:30:48;;;;;;;51.35;20.83;;;;;;;-145.67;100.00;66521.78;4982579;28;20072;-71
2022/01/10 01:33:17;;;;;;;52.50;21.90;;;;;;;-145.67;100.00;66521.78;4989249;28;20112;-70
2022/01/10 01:35:43;;;;;;;55.58;24.30;;;;;;;-145.67;100.00;66521.78;4995385;28;20026;-70
2022/01/10 01:38:11;;;;;;;50.97;22.25;;;;;;;-145.67;100.00;66521.78;4986117;28;20068;-70
2022/01/10 01:40:45;;;;;;;59.75;23.55;;;;;;;-145.67;100.00;66521.78;4994988;28;20564;-71
2022/01/10 01:43:10;;;;;;;50.00;22.00;;;;;;;-145.67;100.00;66521.78;4994433;28;20030;-70
2022/01/10 01:45:44;;;;;;;49.65;21.98;;;;;;;-145.67;100.00;66521.78;4994753;28;20160;-70
2022/01/10 01:48:10;;;;;;;45.85;21.42;;;;;;;-145.67;100.00;66521.78;4997522;28;20036;-70
2022/01/10 01:50:39;;;;;;;53.60;21.65;;;;;;;-145.67;100.00;66521.78;4994774;28;20588;-70
2022/01/10 01:53:06;;;;;;;49.22;21.10;;;;;;;-145.67;100.00;66521.78;5000223;28;20060;-71
2022/01/10 01:55:31;;;;;;;38.17;18.98;;;;;;;-145.67;100.00;66521.78;5009341;28;20030;-70
2022/01/10 01:58:00;;;;;;;39.88;18.70;;;;;;;-145.67;100.00;66521.78;4995178;28;21980;-71
2022/01/10 02:00:26;;;;;;;45.95;18.13;;;;;;;-145.67;100.00;66521.78;4999404;28;20053;-71
2022/01/10 02:02:53;;;;;;;51.50;20.35;;;;;;;-145.67;100.00;66521.78;4994615;28;20654;-70
2022/01/10 02:05:21;;;;;;;54.40;24.65;;;;;;;-145.67;100.00;66521.78;4994693;28;20742;-70
2022/01/10 02:07:51;;;;;;;52.70;23.35;;;;;;;-145.67;100.00;66521.78;4993701;28;20106;-70
2022/01/10 02:10:17;;;;;;;59.53;24.55;;;;;;;-145.67;100.00;66521.78;4994698;28;20120;-70
2022/01/10 02:12:50;;;;;;;57.33;23.88;;;;;;;-145.67;100.00;66521.78;4998686;28;20040;-70
2022/01/10 02:15:36;;;;;;;51.25;24.23;;;;;;;-145.67;100.00;66521.78;4993695;28;20532;-70
2022/01/10 02:18:04;;;;;;;56.97;25.55;;;;;;;-145.67;100.00;66521.78;4994332;28;20095;-70
2022/01/10 02:20:35;;;;;;;55.10;24.10;;;;;;;-145.67;100.00;66521.78;4993412;28;20038;-70
2022/01/10 02:23:03;;;;;;;51.80;21.80;;;;;;;-145.67;100.00;66521.78;4998211;28;20030;-70
2022/01/10 02:25:31;;;;;;;49.17;21.30;;;;;;;-145.67;100.00;66521.78;4999715;28;20064;-70
2022/01/10 02:27:57;;;;;;;55.90;23.35;;;;;;;-145.67;100.00;66521.78;4994069;28;20033;-72
2022/01/10 02:30:23;;;;;;;59.33;26.35;;;;;;;-145.67;100.00;66521.78;4993789;28;20095;-70
2022/01/10 02:32:49;;;;;;;65.32;28.90;;;;;;;-145.67;100.00;66521.78;4994114;28;20041;-70
2022/01/10 02:35:21;;;;;;;59.35;30.35;;;;;;;-145.67;100.00;66521.78;4994308;28;20041;-70
2022/01/10 02:37:51;;;;;;;71.35;31.25;;;;;;;-145.67;100.00;66521.78;5008737;28;20462;-71
2022/01/10 02:40:21;;;;;;;72.45;27.65;;;;;;;-145.67;100.00;66521.78;4994428;28;20029;-71
2022/01/10 02:42:49;;;;;;;;;;;;;;;-145.67;100.00;66521.78;4994179;28;22052;-71
2022/01/10 02:45:15;;;;;;;59.25;21.10;;;;;;;-145.67;100.00;66521.78;4999390;28;20213;-71
2022/01/10 02:47:40;;;;;;;51.55;21.70;;;;;;;-145.67;100.00;66521.78;4993553;28;20132;-71
2022/01/10 02:50:09;;;;;;;59.05;20.77;;;;;;;-145.67;100.00;66521.78;4990662;28;20133;-71
2022/01/10 02:52:39;;;;;;;51.42;20.63;;;;;;;-145.67;100.00;66521.78;5008579;28;20045;-71
2022/01/10 02:55:09;;;;;;;55.28;17.40;;;;;;;-145.67;100.00;66521.78;4997590;28;20042;-71
2022/01/10 02:57:37;;;;;;;46.13;15.73;;;;;;;-145.67;100.00;66521.78;5008677;28;20041;-71
2022/01/10 03:00:06;;;;;;;40.45;14.95;;;;;;;-145.67;100.00;66521.78;4993493;28;20666;-71
2022/01/10 03:02:34;;;;;;;45.25;17.05;;;;;;;-145.67;100.00;66521.78;4999535;28;20151;-71
2022/01/10 03:05:04;;;;;;;66.57;25.67;;;;;;;-145.67;100.00;66521.78;5002756;28;20608;-70
2022/01/10 03:07:32;;;;;;;61.25;28.00;;;;;;;-145.67;100.00;66521.78;5008952;28;20026;-71
2022/01/10 03:10:00;;;;;;;45.92;20.92;;;;;;;-145.67;100.00;66521.78;4984103;28;20755;-70
2022/01/10 03:12:33;;;;;;;46.10;15.23;;;;;;;-145.67;100.00;66521.78;4993597;28;20077;-70
2022/01/10 03:14:59;;;;;;;28.02;10.30;;;;;;;-145.67;100.00;66521.78;4999065;28;20048;-70
2022/01/10 03:17:25;;;;;;;34.50;8.25;;;;;;;-145.67;100.00;66521.78;4994254;28;20038;-70
2022/01/10 03:19:51;;;;;;;39.95;12.80;;;;;;;-145.67;100.00;66521.78;5008401;28;20430;-70
2022/01/10 03:22:19;;;;;;;48.60;19.13;;;;;;;-145.67;100.00;66521.78;4997912;28;20044;-70
2022/01/10 03:24:47;;;;;;;65.18;24.27;;;;;;;-145.67;100.00;66521.78;5003551;28;20041;-69
2022/01/10 03:27:15;;;;;;;53.83;21.33;;;;;;;-145.67;100.00;66521.78;4993656;28;20416;-70
2022/01/10 03:29:41;;;;;;;53.83;24.63;;;;;;;-145.67;100.00;66521.78;4993490;28;20152;-70
2022/01/10 03:32:09;;;;;;;41.80;14.27;;;;;;;-145.67;100.00;66521.78;4995239;28;20131;-70
2022/01/10 03:34:35;;;;;;;41.50;10.85;;;;;;;-145.67;100.00;66521.78;4997181;28;20132;-70
2022/01/10 03:37:03;;;;;;;42.25;13.63;;;;;;;-145.67;100.00;66521.78;4997652;28;20057;-70
2022/01/10 03:39:31;;;;;;;46.97;20.42;;;;;;;-145.67;100.00;66521.78;4997161;28;20032;-71
2022/01/10 03:41:59;;;;;;;56.78;21.88;;;;;;;-145.67;100.00;66521.78;4996814;28;20080;-70
2022/01/10 03:44:25;;;;;;;46.42;19.40;;;;;;;-145.67;100.00;66521.78;4996884;28;20068;-70
2022/01/10 03:46:50;;;;;;;66.72;26.80;;;;;;;-145.67;100.00;66521.78;4997400;28;20030;-71
2022/01/10 03:49:16;;;;;;;52.78;21.58;;;;;;;-145.67;100.00;66521.78;4996373;28;20049;-70
2022/01/10 03:51:42;;;;;;;75.38;27.10;;;;;;;-145.67;100.00;66521.78;4996743;28;20041;-70
2022/01/10 03:54:12;;;;;;;75.43;28.17;;;;;;;-145.67;100.00;66521.78;5011900;28;20042;-68
2022/01/10 03:56:40;;;;;;;71.22;26.73;;;;;;;-145.67;100.00;66521.78;4994972;28;20048;-71
2022/01/10 03:59:08;;;;;;;59.10;23.80;;;;;;;-145.67;100.00;66521.78;4996640;28;20619;-70
2022/01/10 04:01:39;;;;;;;59.55;22.30;;;;;;;-145.67;100.00;66521.78;4996909;28;20042;-71
2022/01/10 04:04:09;;;;;;;54.53;21.08;;;;;;;-145.67;100.00;66521.78;4996452;28;20164;-71
2022/01/10 04:06:37;;;;;;;54.97;18.67;;;;;;;-145.67;100.00;66521.78;4997342;28;20117;-71
2022/01/10 04:09:03;;;;;;;53.25;19.90;;;;;;;-145.67;100.00;66521.78;5011263;28;20040;-71
2022/01/10 04:11:29;;;;;;;49.05;19.65;;;;;;;-145.67;100.00;66521.78;4996323;28;20103;-71
2022/01/10 04:13:54;;;;;;;56.47;19.77;;;;;;;-145.67;100.00;66521.78;4995812;28;20065;-70
2022/01/10 04:16:22;;;;;;;49.50;20.58;;;;;;;-145.67;100.00;66521.78;5011745;28;20129;-71
2022/01/10 04:18:47;;;;;;;46.55;18.00;;;;;;;-145.67;100.00;66521.78;4994930;28;20060;-71
2022/01/10 04:21:15;;;;;;;44.65;13.45;;;;;;;-145.67;100.00;66521.78;4996532;28;20061;-70
2022/01/10 04:23:41;;;;;;;31.33;9.18;;;;;;;-145.67;100.00;66521.78;4996896;28;20041;-71
2022/01/10 04:26:07;;;;;;;34.95;8.35;;;;;;;-145.67;100.00;66521.78;4995734;28;20299;-71
2022/01/10 04:28:34;;;;;;;38.45;9.80;;;;;;;-145.67;100.00;66521.78;4996202;28;20138;-71
2022/01/10 04:31:03;;;;;;;42.95;8.95;;;;;;;-145.67;100.00;66521.78;4995681;28;20176;-71
2022/01/10 04:33:30;;;;;;;39.05;8.63;;;;;;;-145.67;100.00;66521.78;4995510;28;20112;-71
2022/01/10 04:35:56;;;;;;;29.15;8.27;;;;;;;-145.67;100.00;66521.78;5001185;28;20116;-71
2022/01/10 04:38:22;;;;;;;43.40;8.55;;;;;;;-145.67;100.00;66521.78;5011236;28;20052;-71
2022/01/10 04:40:48;;;;;;;39.90;8.98;;;;;;;-145.67;100.00;66521.78;4995109;28;20508;-70
2022/01/10 04:43:18;;;;;;;40.97;8.85;;;;;;;-145.67;100.00;66521.78;4994839;28;20148;-70
2022/01/10 04:45:44;;;;;;;35.17;7.97;;;;;;;-145.67;100.00;66521.78;4996539;28;20225;-70
2022/01/10 04:48:10;;;;;;;36.65;9.35;;;;;;;-145.67;100.00;66521.78;4994873;28;20026;-70
2022/01/10 04:53:07;;;;;;;38.58;8.90;;;;;;;-145.67;100.00;66521.78;4995164;28;20038;-71
2022/01/10 04:55:34;;;;;;;44.13;10.40;;;;;;;-145.67;100.00;66521.78;4995727;28;20575;-71
2022/01/10 04:58:04;;;;;;;41.35;10.80;;;;;;;-145.67;100.00;66521.78;4995506;28;20029;-70
2022/01/10 05:00:34;;;;;;;40.28;10.93;;;;;;;-145.67;100.00;66521.78;5010749;28;20056;-71
2022/01/10 05:03:00;;;;;;;41.55;10.00;;;;;;;-145.67;100.00;66521.78;5005069;28;20029;-71
2022/01/10 05:05:28;;;;;;;32.33;9.88;;;;;;;-145.67;100.00;66521.78;4995188;28;20093;-69
2022/01/10 05:07:56;;;;;;;30.30;8.73;;;;;;;-145.67;100.00;66521.78;4995392;28;20083;-69
2022/01/10 05:10:21;;;;;;;47.53;10.98;;;;;;;-145.67;100.00;66521.78;4999535;28;20045;-69
2022/01/10 05:12:47;;;;;;;40.15;11.32;;;;;;;-145.67;100.00;66521.78;5010117;28;20030;-68
2022/01/10 05:15:12;;;;;;;50.08;10.48;;;;;;;-145.67;100.00;66521.78;5010312;28;20442;-68
2022/01/10 05:17:38;;;;;;;40.97;9.93;;;;;;;-145.67;100.00;66521.78;4995555;28;20046;-69
2022/01/10 05:20:04;;;;;;;35.53;9.35;;;;;;;-145.67;100.00;66521.78;4994331;28;20062;-68
2022/01/10 05:22:33;;;;;;;37.20;9.75;;;;;;;-145.67;100.00;66521.78;4993141;28;20021;-68
2022/01/10 05:25:00;;;;;;;49.85;11.60;;;;;;;-145.67;100.00;66521.78;4995039;28;20038;-68
2022/01/10 05:27:29;;;;;;;38.35;10.32;;;;;;;-145.67;100.00;66521.78;4994988;28;20037;-69
2022/01/10 05:29:57;;;;;;;46.85;11.30;;;;;;;-145.67;100.00;66521.78;4994743;28;20125;-69
2022/01/10 05:32:25;;;;;;;45.20;10.52;;;;;;;-145.67;100.00;66521.78;4994730;28;20541;-68
2022/01/10 05:34:50;;;;;;;39.47;11.57;;;;;;;-145.67;100.00;66521.78;4994482;28;20034;-69
2022/01/10 05:37:16;;;;;;;38.75;12.88;;;;;;;-145.67;100.00;66521.78;4995566;28;20091;-68
2022/01/10 05:39:44;;;;;;;46.72;13.75;;;;;;;-145.67;100.00;66521.78;4999018;28;20076;-68
2022/01/10 05:42:10;;;;;;;38.58;13.68;;;;;;;-145.67;100.00;66521.78;4994884;28;20485;-68
2022/01/10 05:44:38;;;;;;;49.95;16.48;;;;;;;-145.67;100.00;66521.78;4998995;28;20040;-68
2022/01/10 05:47:07;;;;;;;56.65;18.35;;;;;;;-145.67;100.00;66521.78;4994907;28;20038;-68
2022/01/10 05:49:37;;;;;;;45.60;16.25;;;;;;;-145.67;100.00;66521.78;4994041;28;20139;-68
2022/01/10 05:52:03;;;;;;;53.40;16.90;;;;;;;-145.67;100.00;66521.78;4994436;28;20096;-68
2022/01/10 05:54:28;;;;;;;50.08;14.63;;;;;;;-145.67;100.00;66521.78;4994800;28;20037;-71
2022/01/10 05:56:56;;;;;;;54.92;14.18;;;;;;;-145.67;100.00;66521.78;4994043;28;20544;-68
2022/01/10 05:59:22;;;;;;;44.88;14.48;;;;;;;-145.67;100.00;66521.78;4994668;28;20216;-70
2022/01/10 06:01:50;;;;;;;50.65;15.15;;;;;;;-145.67;100.00;66521.78;4994315;28;20034;-70
2022/01/10 06:04:16;;;;;;;40.63;14.50;;;;;;;-145.67;100.00;66521.78;4993871;28;20709;-70
2022/01/10 06:06:41;;;;;;;45.30;14.20;;;;;;;-145.67;100.00;66521.78;4994573;28;20042;-72
2022/01/10 06:09:09;;;;;;;49.80;15.18;;;;;;;-145.67;100.00;66521.78;5003554;28;20033;-70
2022/01/10 06:11:34;;;;;;;52.33;19.02;;;;;;;-145.67;100.00;66521.78;4994476;28;20026;-69
2022/01/10 06:14:05;;;;;;;47.42;17.50;;;;;;;-145.67;100.00;66521.78;4994168;28;20113;-69
2022/01/10 06:16:30;;;;;;;44.03;16.60;;;;;;;-145.67;100.00;66521.78;4995092;28;20041;-70
2022/01/10 06:18:56;;;;;;;37.90;15.52;;;;;;;-145.67;100.00;66521.78;4994014;28;20517;-70
2022/01/10 06:21:24;;;;;;;40.85;17.92;;;;;;;-145.67;100.00;66521.78;4992940;28;20155;-70
2022/01/10 06:23:49;;;;;;;48.05;17.67;;;;;;;-145.67;100.00;66521.78;4993749;28;20038;-70
2022/01/10 06:26:15;;;;;;;47.63;16.33;;;;;;;-145.67;100.00;66521.78;4997771;28;20698;-70
2022/01/10 06:28:40;;;;;;;55.65;15.68;;;;;;;-145.67;100.00;66521.78;4993360;28;20216;-69
2022/01/10 06:31:10;;;;;;;43.80;14.05;;;;;;;-145.67;100.00;66521.78;4993624;28;20095;-70
2022/01/10 06:33:36;;;;;;;40.67;13.27;;;;;;;-145.67;100.00;66521.78;5003275;28;20065;-70
2022/01/10 06:36:02;;;;;;;47.65;13.00;;;;;;;-145.67;100.00;66521.78;4992270;28;20125;-69
2022/01/10 06:38:27;;;;;;;38.45;12.63;;;;;;;-145.67;100.00;66521.78;4993541;28;20461;-69
2022/01/10 06:40:53;;;;;;;39.45;11.98;;;;;;;-145.67;100.00;66521.78;4993965;28;20707;-69
2022/01/10 06:43:18;;;;;;;38.38;12.55;;;;;;;-145.67;100.00;66521.78;4993218;28;20056;-69
2022/01/10 06:45:44;;;;;;;35.55;12.02;;;;;;;-145.67;100.00;66521.78;4993856;28;20485;-70
2022/01/10 06:48:10;;;;;;;40.40;12.63;;;;;;;-145.67;100.00;66521.78;4993370;28;20037;-71
2022/01/10 06:50:35;;;;;;;38.97;11.68;;;;;;;-145.67;100.00;66521.78;4992086;28;20041;-69
2022/01/10 06:53:02;;;;;;;37.67;12.77;;;;;;;-145.67;100.00;66521.78;4993185;28;20038;-69
2022/01/10 06:55:28;;;;;;;43.83;11.60;;;;;;;-145.67;100.00;66521.78;4993103;28;20040;-69
2022/01/10 06:57:56;;;;;;;30.92;11.00;;;;;;;-145.67;100.00;66521.78;4994129;28;20426;-69
2022/01/10 07:00:26;;;;;;;35.00;10.55;;;;;;;-145.67;100.00;66521.78;4993631;28;20128;-70
2022/01/10 07:02:51;;;;;;;37.38;10.75;;;;;;;-145.67;100.00;66521.78;4999212;28;20033;-69
2022/01/10 07:05:17;;;;;;;33.28;10.20;;;;;;;-145.67;100.00;66521.78;4993179;28;20080;-69
2022/01/10 07:07:42;;;;;;;38.53;12.05;;;;;;;-145.67;100.00;66521.78;4996232;28;20180;-70
2022/01/10 07:10:08;;;;;;;47.40;14.70;;;;;;;-145.67;100.00;66521.78;4997287;28;20034;-69
2022/01/10 07:12:33;;;;;;;40.95;13.02;;;;;;;-145.67;100.00;66521.78;4995275;28;20642;-69
2022/01/10 07:15:02;;;;;;;46.53;16.60;;;;;;;-145.67;100.00;66521.78;4995284;28;20498;-69
2022/01/10 07:17:29;;;;;;;65.25;25.67;;;;;;;-145.67;100.00;66521.78;5011972;28;20445;-67
2022/01/10 07:19:55;;;;;;;66.35;25.55;;;;;;;-145.67;100.00;66521.78;5002587;28;20088;-67
2022/01/10 07:22:22;;;;;;;70.50;26.40;;;;;;;-145.67;100.00;66521.78;4996015;28;20124;-67
2022/01/10 07:24:48;;;;;;;51.53;24.02;;;;;;;-145.67;100.00;66521.78;4996762;28;20038;-67
2022/01/10 07:27:13;;;;;;;54.10;22.48;;;;;;;-145.67;100.00;66521.78;5006770;28;20103;-69
2022/01/10 07:29:39;;;;;;;48.60;20.80;;;;;;;-145.67;100.00;66521.78;4996626;28;20085;-70
2022/01/10 07:32:06;;;;;;;62.75;25.67;;;;;;;-145.67;100.00;66521.78;5011828;28;20420;-69
2022/01/10 07:34:31;;;;;;;55.75;26.15;;;;;;;-145.67;100.00;66521.78;4996082;28;20033;-70
2022/01/10 07:36:59;;;;;;;62.63;27.45;;;;;;;-145.67;100.00;66521.78;4997307;28;20060;-70
2022/01/10 07:39:24;;;;;;;57.30;24.50;;;;;;;-145.67;100.00;66521.78;5006263;28;20531;-71
2022/01/10 07:41:52;;;;;;;57.85;25.90;;;;;;;-145.67;100.00;66521.78;4996641;28;20034;-69
2022/01/10 07:44:18;;;;;;;60.38;25.63;;;;;;;-145.67;100.00;66521.78;4996144;28;20061;-69
2022/01/10 07:46:43;;;;;;;64.10;26.65;;;;;;;-145.67;100.00;66521.78;4996764;28;20114;-70
2022/01/10 07:49:09;;;;;;;74.22;26.33;;;;;;;-145.67;100.00;66521.78;4995909;28;20486;-71
2022/01/10 07:51:34;;;;;;;54.25;23.38;;;;;;;-145.67;100.00;66521.78;4996926;28;20034;-71
2022/01/10 07:54:00;;;;;;;68.50;26.23;;;;;;;-145.67;100.00;66521.78;4996280;28;20144;-71
2022/01/10 07:56:28;;;;;;;68.45;27.08;;;;;;;-145.67;100.00;66521.78;4994749;28;20140;-69
2022/01/10 07:58:54;;;;;;;61.85;26.88;;;;;;;-145.67;100.00;66521.78;4996292;28;20558;-69
2022/01/10 08:01:25;;;;;;;57.33;22.00;;;;;;;-145.67;100.00;66521.78;4996290;28;20034;-70
2022/01/10 08:03:51;;;;;;;76.18;25.45;;;;;;;-145.67;100.00;66521.78;4995968;28;20037;-70
2022/01/10 08:06:24;;;;;;;71.35;28.40;;;;;;;-145.67;100.00;66521.78;5011642;28;20060;-70
2022/01/10 08:08:52;;;;;;;71.50;25.88;;;;;;;-145.67;100.00;66521.78;4995238;28;20107;-70
2022/01/10 08:11:18;;;;;;;63.70;23.35;;;;;;;-145.67;100.00;66521.78;4995743;28;20045;-69
2022/01/10 08:13:46;;;;;;;65.20;25.05;;;;;;;-145.67;100.00;66521.78;4996108;28;20050;-71
2022/01/10 08:16:11;;;;;;;51.55;21.55;;;;;;;-145.67;100.00;66521.78;4996715;28;20819;-69
2022/01/10 08:18:39;;;;;;;56.75;18.27;;;;;;;-145.67;100.00;66521.78;4992573;28;20088;-69
2022/01/10 08:21:06;;;;;;;47.78;19.95;;;;;;;-145.67;100.00;66521.78;4996164;28;20053;-69
2022/01/10 08:23:32;;;;;;;52.70;22.13;;;;;;;-145.67;100.00;66521.78;4995589;28;20152;-71
2022/01/10 08:25:57;;;;;;;49.42;23.17;;;;;;;-145.67;100.00;66521.78;4996141;28;20033;-69
2022/01/10 08:28:25;;;;;;;50.40;20.63;;;;;;;-145.67;100.00;66521.78;4995419;28;20605;-70
2022/01/10 08:30:53;;;;;;;59.40;24.52;;;;;;;-145.67;100.00;66521.78;4994172;28;20437;-69
2022/01/10 08:33:18;;;;;;;50.63;21.48;;;;;;;-145.67;100.00;66521.78;4999178;28;20106;-69
2022/01/10 08:35:44;;;;;;;49.58;18.25;;;;;;;-145.67;100.00;66521.78;4996020;28;20505;-69
2022/01/10 08:38:12;;;;;;;44.72;19.10;;;;;;;-145.67;100.00;66521.78;4995705;28;20080;-71
2022/01/10 08:40:39;;;;;;;44.80;16.13;;;;;;;-145.67;100.00;66521.78;4999441;28;20490;-70
2022/01/10 08:43:10;;;;;;;46.08;20.10;;;;;;;-145.67;100.00;66521.78;4999525;28;20068;-70
2022/01/10 08:45:38;;;;;;;60.95;23.30;;;;;;;-145.67;100.00;66521.78;4993067;28;20045;-70
2022/01/10 08:48:05;;;;;;;58.38;22.65;;;;;;;-145.67;100.00;66521.78;5010025;28;20029;-70
2022/01/10 08:50:34;;;;;;;76.35;28.50;;;;;;;-145.67;100.00;66521.78;4994039;28;20513;-69
2022/01/10 08:53:09;;;;;;;64.13;29.88;;;;;;;-145.67;100.00;66521.78;4993982;28;20038;-70
2022/01/10 08:55:35;;;;;;;54.03;25.27;;;;;;;-145.67;100.00;66521.78;4995116;28;20033;-70
2022/01/10 08:58:01;;;;;;;45.70;22.88;;;;;;;-145.67;100.00;66521.78;4994227;28;20070;-70
2022/01/10 09:00:30;;;;;;;42.03;20.85;;;;;;;-145.67;100.00;66521.78;5010703;28;20091;-69
2022/01/10 09:02:55;;;;;;;47.80;23.20;;;;;;;-145.67;100.00;66521.78;4995627;28;20215;-71
2022/01/10 09:05:21;;;;;;;48.03;22.73;;;;;;;-145.67;100.00;66521.78;5000236;28;20156;-69
2022/01/10 09:07:47;;;;;;;58.72;25.33;;;;;;;-145.67;100.00;66521.78;5010735;28;20041;-70
2022/01/10 09:10:13;;;;;;;58.92;23.17;;;;;;;-145.67;100.00;66521.78;4990397;28;20029;-69
2022/01/10 09:12:38;;;;;;;41.60;21.15;;;;;;;-145.67;100.00;66521.78;5009593;28;20038;-69
2022/01/10 09:15:09;;;;;;;47.03;17.63;;;;;;;-145.67;100.00;66521.78;5001445;28;20129;-70
2022/01/10 09:17:35;;;;;;;49.60;19.45;;;;;;;-145.67;100.00;66521.78;5000601;28;20497;-70
2022/01/10 09:20:00;;;;;;;44.08;20.17;;;;;;;-145.67;100.00;66521.78;4994633;28;20048;-70
2022/01/10 09:22:26;;;;;;;47.30;20.65;;;;;;;-145.67;100.00;66521.78;4995487;28;20091;-70
2022/01/10 09:25:00;;;;;;;47.63;21.55;;;;;;;-145.67;100.00;66521.78;4993879;28;20485;-70
2022/01/10 09:27:25;;;;;;;56.33;25.58;;;;;;;-145.67;100.00;66521.78;4994872;28;20180;-72
2022/01/10 09:29:51;;;;;;;50.10;24.23;;;;;;;-145.67;100.00;66521.78;4994611;28;22064;-70
2022/01/10 09:32:24;;;;;;;40.70;19.52;;;;;;;-145.67;100.00;66521.78;4998216;28;20548;-70
2022/01/10 09:34:50;;;;;;;50.83;23.40;;;;;;;-145.67;100.00;66521.78;4994248;28;20037;-70
2022/01/10 09:37:19;;;;;;;34.88;18.70;;;;;;;-145.67;100.00;66521.78;4995436;28;20029;-69
2022/01/10 09:39:49;;;;;;;37.83;17.70;;;;;;;-145.67;100.00;66521.78;4994440;28;20029;-69
2022/01/10 09:42:15;;;;;;;39.60;18.75;;;;;;;-145.67;100.00;66521.78;4994523;28;20037;-70
2022/01/10 09:44:40;;;;;;;46.92;20.80;;;;;;;-145.67;100.00;66521.78;4992755;28;20064;-70
2022/01/10 09:47:06;;;;;;;38.40;18.20;;;;;;;-145.67;100.00;66521.78;4992683;28;20033;-69
2022/01/10 09:49:34;;;;;;;39.28;17.17;;;;;;;-145.67;100.00;66521.78;4994266;28;20056;-71
2022/01/10 09:51:59;;;;;;;39.80;16.48;;;;;;;-145.67;100.00;66521.78;4994529;28;20410;-70
2022/01/10 09:54:29;;;;;;;47.80;21.75;;;;;;;-145.67;100.00;66521.78;5003049;28;20446;-71
2022/01/10 09:56:57;;;;;;;45.85;24.98;;;;;;;-145.67;100.00;66521.78;4994127;28;20041;-72
2022/01/10 09:59:23;;;;;;;49.72;25.45;;;;;;;-145.67;100.00;66521.78;4994430;28;20030;-71
2022/01/10 10:01:50;;;;;;;43.65;21.27;;;;;;;-145.67;100.00;66521.78;4994163;28;20022;-71
2022/01/10 10:04:18;;;;;;;57.63;26.00;;;;;;;-145.67;100.00;66521.78;4993282;28;20084;-70
2022/01/10 10:06:45;;;;;;;48.05;25.02;;;;;;;-145.67;100.00;66521.78;4994475;28;20269;-69
2022/01/10 10:09:10;;;;;;;45.42;20.08;;;;;;;-145.67;100.00;66521.78;4997920;28;20469;-70
2022/01/10 10:11:40;;;;;;;44.25;20.75;;;;;;;-145.67;100.00;66521.78;4993810;28;20034;-70
2022/01/10 10:14:07;;;;;;;40.38;17.02;;;;;;;-145.67;100.00;66521.78;4993855;28;20403;-70
2022/01/10 10:16:36;;;;;;;40.45;16.88;;;;;;;-145.67;100.00;66521.78;4993905;28;20867;-70
2022/01/10 10:19:05;;;;;;;39.78;17.80;;;;;;;-145.67;100.00;66521.78;5008112;28;20121;-70
2022/01/10 10:21:33;;;;;;;38.15;16.70;;;;;;;-145.67;100.00;66521.78;5003663;28;20133;-70
2022/01/10 10:24:00;;;;;;;32.33;16.13;;;;;;;-145.67;100.00;66521.78;4994232;28;20048;-71
2022/01/10 10:26:26;;;;;;;30.45;15.85;;;;;;;-145.67;100.00;66521.78;4997225;28;20129;-71
2022/01/10 10:28:54;;;;;;;31.05;13.10;;;;;;;-145.67;100.00;66521.78;5003438;28;20038;-71
2022/01/10 10:31:33;;;;;;;38.10;16.27;;;;;;;-145.67;100.00;66521.78;4992516;28;20571;-71
2022/01/10 10:34:04;;;;;;;39.22;16.50;;;;;;;-145.67;100.00;66521.78;5008356;28;20100;-71
2022/01/10 10:36:31;;;;;;;39.17;16.67;;;;;;;-145.67;100.00;66521.78;5008945;28;20033;-71
2022/01/10 10:38:58;;;;;;;39.70;17.27;;;;;;;-145.67;100.00;66521.78;4993349;28;20649;-71
2022/01/10 10:41:24;;;;;;;34.70;15.98;;;;;;;-145.67;100.00;66521.78;4997455;28;20037;-71
2022/01/10 10:43:54;;;;;;;40.60;15.90;;;;;;;-145.67;100.00;66521.78;4998917;28;20060;-71
2022/01/10 10:46:26;;;;;;;39.95;15.68;;;;;;;-145.67;100.00;66521.78;4994074;28;20034;-70
2022/01/10 10:49:03;;;;;;;44.10;16.88;;;;;;;-145.67;100.00;66521.78;4992781;28;20148;-71
2022/01/10 10:51:38;;;;;;;40.35;16.40;;;;;;;-145.67;100.00;66521.78;4997346;28;20585;-71
2022/01/10 10:54:08;;;;;;;35.60;16.00;;;;;;;-145.67;100.00;66521.78;4993472;28;20037;-71
2022/01/10 10:56:38;;;;;;;41.88;17.73;;;;;;;-145.67;100.00;66521.78;5007785;28;20113;-70
2022/01/10 10:59:07;;;;;;;36.78;14.00;;;;;;;-145.67;100.00;66521.78;4997075;28;20085;-70
2022/01/10 11:01:36;;;;;;;29.80;13.20;;;;;;;-145.67;100.00;66521.78;4997963;28;20556;-70
2022/01/10 11:04:03;;;;;;;35.28;12.52;;;;;;;-145.67;100.00;66521.78;5007690;28;22220;-70